Time;durP1;ratioP1;P1;durP2;ratioP2;P2;SDS_P1;SDS_P2;PMS_P1;PMS_P2;Temp;Humidity;BMP_temperature;BMP_pressure;BME280_temperature;BME280_humidity;BME280_pressure;Samples;Min_cycle;Max_cycle;Signal;HPM_P1;HPM_P2
2022/05/17 00:00:36;;;;;;;6.28;2.20;;;;;;;17.25;71.74;102048.13;5067687;28;20395;-61
2022/05/17 00:03:02;;;;;;;7.10;2.20;;;;;;;17.30;71.38;102044.34;5066436;28;20021;-61
2022/05/17 00:05:28;;;;;;;5.20;2.00;;;;;;;17.34;71.23;102044.19;5068712;28;20051;-61
2022/05/17 00:07:54;;;;;;;13.15;2.65;;;;;;;17.36;71.20;102043.19;5064642;28;20029;-62
2022/05/17 00:10:21;;;;;;;7.82;2.25;;;;;;;17.37;71.20;102036.09;5048427;28;20650;-62
2022/05/17 00:12:47;;;;;;;8.68;2.22;;;;;;;17.45;70.73;102047.25;5047993;28;20049;-62
2022/05/17 00:15:13;;;;;;;11.00;2.33;;;;;;;17.45;70.66;102041.06;5065768;28;20432;-62
2022/05/17 00:17:38;;;;;;;7.45;2.17;;;;;;;17.48;70.46;102038.25;5067958;28;20033;-61
2022/05/17 00:20:05;;;;;;;6.25;1.90;;;;;;;17.49;70.52;102037.34;5066941;28;20078;-61
2022/05/17 00:22:30;;;;;;;11.60;2.58;;;;;;;17.42;70.64;102042.94;5068700;28;20024;-61
2022/05/17 00:24:55;;;;;;;5.43;1.85;;;;;;;17.48;70.42;102041.78;5067909;28;20024;-61
2022/05/17 00:27:21;;;;;;;7.68;1.98;;;;;;;17.49;70.47;102038.19;5066864;28;20012;-62
2022/05/17 00:29:46;;;;;;;8.25;2.33;;;;;;;17.46;70.15;102037.47;5067932;28;20028;-60
2022/05/17 00:32:11;;;;;;;5.57;1.80;;;;;;;17.42;70.42;102037.59;5067364;28;20126;-63
2022/05/17 00:34:37;;;;;;;5.65;2.40;;;;;;;17.41;70.47;102037.66;5067849;28;20024;-60
2022/05/17 00:37:03;;;;;;;8.63;2.25;;;;;;;17.39;70.68;102042.19;5068099;28;20379;-61
2022/05/17 00:39:28;;;;;;;6.30;2.10;;;;;;;17.36;70.82;102042.31;5066492;28;20077;-61
2022/05/17 00:41:53;;;;;;;5.40;1.85;;;;;;;17.29;71.07;102041.72;5067494;28;20474;-61
2022/05/17 00:47:05;;;;;;;11.05;1.90;;;;;;;17.12;71.55;102040.66;5059364;28;20470;-61
2022/05/17 00:49:35;;;;;;;7.53;2.50;;;;;;;17.01;72.06;102033.09;5047788;28;20049;-65
2022/05/17 00:52:04;;;;;;;7.88;2.17;;;;;;;16.91;72.66;102043.25;5048010;28;20063;-63
2022/05/17 00:54:30;;;;;;;7.80;2.25;;;;;;;16.86;73.20;102047.91;5047742;28;20480;-62
2022/05/17 00:57:19;;;;;;;8.27;2.67;;;;;;;16.84;73.04;102055.09;5049960;28;20116;-62
2022/05/17 00:59:44;;;;;;;;;;;;;;;16.85;73.05;102048.84;5067505;28;20123;-62
2022/05/17 01:02:10;;;;;;;7.40;1.80;;;;;;;16.89;72.54;102058.44;5066284;28;20368;-62
2022/05/17 01:04:36;;;;;;;8.45;1.92;;;;;;;16.92;72.42;102050.31;5076454;22;20405;-62
2022/05/17 01:07:25;;;;;;;4.80;1.88;;;;;;;16.98;72.12;102059.84;5067535;28;20024;-60
2022/05/17 01:09:50;;;;;;;5.40;1.80;;;;;;;16.96;72.06;102060.84;5066242;28;20036;-62
2022/05/17 01:12:16;;;;;;;8.27;1.92;;;;;;;16.96;72.00;102060.84;5066263;28;20074;-62
2022/05/17 01:15:00;;;;;;;7.28;2.17;;;;;;;16.95;71.65;102061.78;5066130;28;20064;-62
2022/05/17 01:17:27;;;;;;;4.22;1.60;;;;;;;16.85;72.04;102054.16;5067587;28;20063;-61
2022/05/17 01:19:52;;;;;;;9.63;2.00;;;;;;;16.80;72.48;102058.81;5066594;28;20078;-62
2022/05/17 01:22:17;;;;;;;7.53;2.13;;;;;;;16.78;72.42;102047.38;5067362;28;20020;-63
2022/05/17 01:24:43;;;;;;;7.47;2.35;;;;;;;16.72;72.78;102055.59;5067241;28;20024;-62
2022/05/17 01:27:42;;;;;;;7.07;1.80;;;;;;;16.62;73.30;102053.28;5065332;28;20031;-62
2022/05/17 01:30:17;;;;;;;4.53;1.73;;;;;;;16.61;73.14;102050.69;5056288;28;20040;-61
2022/05/17 01:32:43;;;;;;;7.50;2.10;;;;;;;16.55;73.07;102055.34;5066680;28;20528;-64
2022/05/17 01:35:09;;;;;;;5.05;2.00;;;;;;;16.48;73.29;102045.88;5066661;28;20021;-61
2022/05/17 01:37:34;;;;;;;4.45;1.80;;;;;;;16.50;73.48;102053.81;5067617;28;20044;-61
2022/05/17 01:39:59;;;;;;;6.90;2.20;;;;;;;16.49;73.63;102057.38;5065439;28;20624;-61
2022/05/17 01:42:24;;;;;;;7.38;2.28;;;;;;;16.42;73.98;102062.97;5065034;28;20560;-61
2022/05/17 01:44:50;;;;;;;4.00;2.05;;;;;;;16.45;73.88;102055.78;5065484;28;20043;-62
2022/05/17 01:47:15;;;;;;;3.92;1.83;;;;;;;16.41;74.03;102060.34;5066503;28;20024;-61
2022/05/17 01:49:40;;;;;;;3.63;1.80;;;;;;;16.40;73.94;102053.28;5066153;28;20115;-61
2022/05/17 01:52:06;;;;;;;6.53;2.08;;;;;;;16.31;74.16;102051.84;5067198;28;20533;-60
2022/05/17 01:54:32;;;;;;;8.65;2.05;;;;;;;16.28;74.37;102049.31;5066668;28;20544;-60
2022/05/17 01:56:57;;;;;;;7.07;2.30;;;;;;;16.25;74.42;102046.78;5064855;28;20024;-62
2022/05/17 01:59:22;;;;;;;8.15;2.22;;;;;;;16.27;74.93;102045.81;5066294;28;20032;-61
2022/05/17 02:01:48;;;;;;;3.30;1.73;;;;;;;16.28;74.50;102039.56;5065714;28;20028;-61
2022/05/17 02:04:14;;;;;;;7.95;2.40;;;;;;;16.23;74.55;102046.84;5065304;28;20048;-61
2022/05/17 02:06:39;;;;;;;5.00;1.80;;;;;;;16.20;74.59;102046.09;5066343;28;20016;-62
2022/05/17 02:09:05;;;;;;;6.45;1.85;;;;;;;16.15;74.79;102054.25;5065414;28;20062;-62
2022/05/17 02:11:31;;;;;;;3.70;1.88;;;;;;;16.10;75.18;102056.22;5066463;28;20020;-62
2022/05/17 02:13:56;;;;;;;3.75;2.20;;;;;;;16.07;75.24;102057.19;5066305;28;20028;-62
2022/05/17 02:16:21;;;;;;;5.32;2.15;;;;;;;16.00;75.72;102063.66;5066468;28;20071;-61
2022/05/17 02:18:47;;;;;;;12.05;3.03;;;;;;;15.91;76.65;102063.06;5066102;28;20111;-62
2022/05/17 02:21:12;;;;;;;6.75;2.70;;;;;;;15.87;76.99;102060.56;5081350;28;20107;-62
2022/05/17 02:23:38;;;;;;;6.15;2.17;;;;;;;15.87;77.04;102053.44;5065301;28;20098;-62
2022/05/17 02:26:03;;;;;;;5.80;2.33;;;;;;;15.86;77.37;102069.47;5064690;28;20381;-62
2022/05/17 02:28:28;;;;;;;7.88;2.25;;;;;;;15.90;77.20;102065.78;5066010;28;20059;-62
2022/05/17 02:30:54;;;;;;;3.17;2.15;;;;;;;15.96;77.10;102068.25;5066269;28;20486;-62
2022/05/17 02:33:19;;;;;;;8.70;2.33;;;;;;;16.03;76.78;102068.88;5065135;28;20352;-62
2022/05/17 02:35:44;;;;;;;6.28;2.30;;;;;;;16.11;76.47;102073.91;5066156;28;20024;-62
2022/05/17 02:38:09;;;;;;;4.90;1.80;;;;;;;16.17;76.23;102071.03;5066048;28;20017;-60
2022/05/17 02:40:36;;;;;;;5.40;2.30;;;;;;;16.21;76.03;102069.97;5064283;28;20386;-62
2022/05/17 02:43:02;;;;;;;6.32;2.33;;;;;;;16.27;75.66;102064.44;5065605;28;20036;-61
2022/05/17 02:45:27;;;;;;;7.70;2.97;;;;;;;16.26;75.86;102069.78;5064418;28;20098;-61
2022/05/17 02:47:53;;;;;;;6.90;2.85;;;;;;;16.25;76.14;102073.38;5065772;28;20478;-62
2022/05/17 02:50:19;;;;;;;10.90;2.85;;;;;;;16.25;76.30;102071.56;5065689;28;20036;-61
2022/05/17 02:52:44;;;;;;;10.13;2.72;;;;;;;16.22;76.45;102078.81;5065244;28;20131;-62
2022/05/17 02:55:10;;;;;;;9.90;2.75;;;;;;;16.19;76.67;102076.28;5064052;28;20104;-61
2022/05/17 02:57:35;;;;;;;8.80;2.67;;;;;;;16.20;76.30;102078.88;5064920;28;20363;-61
2022/05/17 03:00:01;;;;;;;4.18;2.05;;;;;;;16.19;76.21;102073.63;5064714;28;20040;-62
2022/05/17 03:02:27;;;;;;;5.63;2.45;;;;;;;16.16;76.33;102074.59;5066169;28;20028;-61
2022/05/17 03:04:52;;;;;;;3.63;1.67;;;;;;;16.15;76.30;102081.72;5063332;28;20040;-60
2022/05/17 03:07:18;;;;;;;6.72;2.50;;;;;;;16.08;76.80;102079.34;5065366;28;20036;-62
2022/05/17 03:09:43;;;;;;;4.80;2.40;;;;;;;16.03;76.94;102077.72;5064861;28;20478;-61
2022/05/17 03:12:09;;;;;;;7.28;2.08;;;;;;;16.08;76.74;102087.31;5064698;28;20032;-63
2022/05/17 03:14:35;;;;;;;7.03;2.70;;;;;;;16.11;76.49;102079.22;5065549;28;20386;-62
2022/05/17 03:17:00;;;;;;;6.75;3.17;;;;;;;16.12;76.36;102076.50;5065171;28;20036;-62
2022/05/17 03:19:25;;;;;;;6.90;2.20;;;;;;;16.11;76.29;102082.75;5065245;28;20081;-62
2022/05/17 03:21:51;;;;;;;3.72;2.67;;;;;;;16.15;76.03;102083.50;5064925;28;20448;-61
2022/05/17 03:24:16;;;;;;;8.07;2.65;;;;;;;16.23;75.98;102075.22;5063766;28;20033;-61
2022/05/17 03:26:42;;;;;;;5.35;2.17;;;;;;;16.26;76.03;102083.09;5064959;28;20041;-62
2022/05/17 03:29:07;;;;;;;7.85;2.40;;;;;;;16.29;75.92;102088.28;5064419;28;20063;-61
2022/05/17 03:31:36;;;;;;;4.55;1.95;;;;;;;16.36;75.68;102089.78;5065475;28;20489;-65
2022/05/17 03:34:01;;;;;;;11.65;2.63;;;;;;;16.39;76.09;102091.47;5064086;28;20478;-61
2022/05/17 03:36:27;;;;;;;7.05;3.03;;;;;;;16.35;76.60;102103.16;5065164;28;20067;-62
2022/05/17 03:38:52;;;;;;;8.60;3.00;;;;;;;16.29;76.78;102098.94;5065619;28;20501;-62
2022/05/17 03:41:17;;;;;;;7.10;3.00;;;;;;;16.25;76.78;102097.28;5063950;28;20058;-64
2022/05/17 03:43:43;;;;;;;6.63;2.80;;;;;;;16.20;77.47;102104.59;5064354;28;20082;-62
2022/05/17 03:46:09;;;;;;;6.93;2.58;;;;;;;16.25;77.39;102106.16;5063930;28;20459;-62
2022/05/17 03:48:35;;;;;;;6.55;2.50;;;;;;;16.28;77.63;102111.34;5064551;28;20024;-62
2022/05/17 03:51:00;;;;;;;6.93;2.60;;;;;;;16.36;77.15;102111.06;5064313;28;20066;-62
2022/05/17 03:53:25;;;;;;;7.65;2.38;;;;;;;16.50;76.57;102099.03;5065034;28;20095;-62
2022/05/17 03:55:51;;;;;;;8.50;2.78;;;;;;;16.61;76.01;102104.78;5063546;28;20107;-60
2022/05/17 03:58:16;;;;;;;6.93;2.83;;;;;;;16.65;75.72;102114.38;5064811;28;20092;-62
2022/05/17 04:00:42;;;;;;;5.95;2.97;;;;;;;16.76;75.46;102113.09;5065398;28;20037;-61
2022/05/17 04:03:07;;;;;;;6.60;2.85;;;;;;;16.83;75.34;102113.72;5063984;28;20037;-62
2022/05/17 04:05:32;;;;;;;7.00;2.22;;;;;;;16.95;74.67;102112.34;5065376;28;20479;-62
2022/05/17 04:07:58;;;;;;;7.88;2.58;;;;;;;17.04;74.13;102118.16;5064587;28;20036;-61
2022/05/17 04:10:23;;;;;;;8.05;2.92;;;;;;;17.15;73.78;102115.09;5061484;28;20078;-62
2022/05/17 04:12:49;;;;;;;14.25;3.20;;;;;;;17.19;73.15;102121.19;5065357;28;20650;-61
2022/05/17 04:15:18;;;;;;;10.00;2.42;;;;;;;17.24;73.21;102123.63;5062571;28;20033;-62
2022/05/17 04:17:43;;;;;;;8.77;2.58;;;;;;;17.29;72.76;102126.97;5061586;28;20036;-62
2022/05/17 04:20:11;;;;;;;6.65;2.47;;;;;;;17.39;72.41;102119.44;5063195;28;20559;-61
2022/05/17 04:22:37;;;;;;;7.17;2.33;;;;;;;17.39;72.29;102123.00;5066971;28;20090;-63
2022/05/17 04:25:02;;;;;;;9.38;2.90;;;;;;;17.40;72.32;102122.03;5066481;28;20028;-62
2022/05/17 04:27:28;;;;;;;8.27;2.20;;;;;;;17.51;72.13;102126.06;5048989;28;20029;-62
2022/05/17 04:29:53;;;;;;;5.88;2.20;;;;;;;17.57;71.85;102133.78;5068427;28;20024;-62
2022/05/17 04:32:19;;;;;;;7.93;2.50;;;;;;;17.65;71.70;102134.34;5067785;28;20781;-63
2022/05/17 04:34:44;;;;;;;6.97;2.63;;;;;;;17.70;71.39;102135.94;5065711;28;20031;-62
2022/05/17 04:37:10;;;;;;;6.97;2.50;;;;;;;17.71;71.17;102127.00;5067348;28;20474;-61
2022/05/17 04:39:36;;;;;;;5.63;2.67;;;;;;;17.72;71.09;102131.38;5064972;28;20036;-62
2022/05/17 04:42:02;;;;;;;6.53;2.63;;;;;;;17.71;71.05;102121.66;5066401;28;20224;-62
2022/05/17 04:44:27;;;;;;;6.50;2.50;;;;;;;17.71;71.36;102122.53;5068342;28;20609;-62
2022/05/17 04:46:53;;;;;;;8.80;2.78;;;;;;;17.75;71.67;102144.56;5067099;28;20035;-61
2022/05/17 04:49:19;;;;;;;4.22;2.65;;;;;;;17.76;71.60;102135.66;5057522;28;20020;-65
2022/05/17 04:51:44;;;;;;;7.22;2.28;;;;;;;17.85;71.54;102140.56;5059231;28;20425;-63
2022/05/17 04:54:10;;;;;;;5.15;2.47;;;;;;;17.90;71.26;102146.56;5067540;28;20470;-64
2022/05/17 04:56:36;;;;;;;6.88;2.38;;;;;;;17.97;71.27;102149.81;5067023;28;20074;-62
2022/05/17 04:59:02;;;;;;;8.20;3.05;;;;;;;18.02;71.26;102147.84;5067150;28;20028;-61
2022/05/17 05:01:27;;;;;;;7.22;2.65;;;;;;;18.04;71.38;102145.09;5067949;28;20029;-63
2022/05/17 05:03:53;;;;;;;9.35;3.25;;;;;;;18.00;71.29;102148.84;5067465;28;20055;-63
2022/05/17 05:06:19;;;;;;;7.55;3.05;;;;;;;17.95;72.00;102157.03;5066780;28;20021;-65
2022/05/17 05:08:44;;;;;;;9.52;2.95;;;;;;;17.99;71.76;102160.41;5067390;28;20028;-61
2022/05/17 05:11:10;;;;;;;6.13;3.00;;;;;;;18.00;71.61;102155.03;5066384;28;20479;-62
2022/05/17 05:13:35;;;;;;;7.45;2.38;;;;;;;18.06;71.49;102159.22;5066828;28;20457;-60
2022/05/17 05:16:00;;;;;;;6.10;2.03;;;;;;;18.15;70.97;102164.16;5061072;28;20025;-63
2022/05/17 05:18:26;;;;;;;6.45;3.15;;;;;;;18.06;71.29;102175.22;5066541;28;20054;-62
2022/05/17 05:21:04;;;;;;;7.18;2.55;;;;;;;18.17;71.32;102169.44;5066896;28;20091;-62
2022/05/17 05:23:29;;;;;;;6.95;2.78;;;;;;;18.19;70.50;102167.59;5067320;28;20035;-63
2022/05/17 05:25:58;;;;;;;6.70;2.95;;;;;;;18.18;70.33;102169.38;5064210;28;20401;-62
2022/05/17 05:28:24;;;;;;;8.55;2.80;;;;;;;18.16;69.86;102165.94;5060797;28;20078;-64
2022/05/17 05:30:49;;;;;;;7.20;2.30;;;;;;;18.18;69.49;102165.81;5067216;28;20016;-64
2022/05/17 05:33:14;;;;;;;8.45;2.63;;;;;;;18.16;69.01;102179.25;5066215;28;20036;-63
2022/05/17 05:35:40;;;;;;;9.65;2.70;;;;;;;18.13;68.92;102178.53;5066879;28;20020;-63
2022/05/17 05:38:05;;;;;;;8.98;2.30;;;;;;;18.11;68.22;102178.59;5066560;28;20651;-61
2022/05/17 05:40:30;;;;;;;13.63;2.47;;;;;;;18.09;68.46;102177.75;5065052;28;20047;-63
2022/05/17 05:42:57;;;;;;;7.90;2.78;;;;;;;18.11;68.44;102175.03;5066186;28;20467;-63
2022/05/17 05:45:22;;;;;;;8.65;2.28;;;;;;;18.15;68.45;102174.00;5065965;28;20094;-62
2022/05/17 05:47:47;;;;;;;9.23;2.22;;;;;;;18.15;67.30;102176.66;5066276;28;20048;-63
2022/05/17 05:50:13;;;;;;;7.65;2.22;;;;;;;18.19;66.88;102176.44;5065921;28;20060;-63
2022/05/17 05:52:39;;;;;;;8.68;2.20;;;;;;;18.21;66.43;102172.84;5065752;28;20020;-63
2022/05/17 05:55:06;;;;;;;5.95;2.40;;;;;;;18.15;66.34;102171.34;5064765;28;20562;-62
2022/05/17 05:57:31;;;;;;;9.38;2.38;;;;;;;18.08;66.59;102168.03;5065052;28;20028;-62
2022/05/17 05:59:57;;;;;;;7.68;2.08;;;;;;;18.09;66.60;102179.56;5066966;28;20035;-64
2022/05/17 06:02:22;;;;;;;10.10;1.80;;;;;;;18.05;66.74;102174.38;5063635;28;20036;-64
2022/05/17 06:04:48;;;;;;;7.30;2.10;;;;;;;18.03;67.07;102170.03;5065612;28;20598;-63
2022/05/17 06:07:13;;;;;;;10.85;2.47;;;;;;;18.02;67.23;102168.28;5065591;28;20020;-63
2022/05/17 06:09:38;;;;;;;7.10;1.95;;;;;;;17.99;67.74;102163.09;5065554;28;20490;-62
2022/05/17 06:12:04;;;;;;;16.00;3.38;;;;;;;17.78;69.11;102163.09;5064766;28;20031;-61
2022/05/17 06:14:29;;;;;;;8.48;2.38;;;;;;;17.99;68.46;102163.97;5066570;28;20043;-63
2022/05/17 06:16:55;;;;;;;9.27;2.25;;;;;;;18.03;68.23;102156.72;5065336;28;20085;-62
2022/05/17 06:19:22;;;;;;;11.65;2.22;;;;;;;18.01;68.26;102151.44;5065893;28;20618;-62
2022/05/17 06:21:47;;;;;;;9.70;2.40;;;;;;;17.97;69.68;102164.97;5066056;28;20074;-62
2022/05/17 06:24:13;;;;;;;7.50;2.40;;;;;;;18.07;69.21;102168.97;5065040;28;20048;-62
2022/05/17 06:26:38;;;;;;;7.97;2.35;;;;;;;18.27;68.77;102159.25;5064179;28;20033;-62
2022/05/17 06:29:04;;;;;;;9.95;2.40;;;;;;;18.40;68.28;102157.75;5065359;28;20021;-63
2022/05/17 06:31:30;;;;;;;7.75;2.78;;;;;;;18.55;67.51;102171.28;5066230;28;20550;-63
2022/05/17 06:33:56;;;;;;;11.73;2.15;;;;;;;18.61;67.15;102171.00;5064146;28;20028;-62
2022/05/17 06:36:21;;;;;;;7.20;2.30;;;;;;;18.68;65.93;102169.78;5065278;28;20043;-63
2022/05/17 06:38:46;;;;;;;10.13;2.45;;;;;;;18.62;65.93;102178.06;5065647;28;20024;-63
2022/05/17 06:41:12;;;;;;;10.65;2.08;;;;;;;18.58;65.71;102176.50;5063801;28;20116;-64
2022/05/17 06:43:37;;;;;;;10.68;2.15;;;;;;;18.54;66.07;102165.09;5064388;28;20110;-63
2022/05/17 06:46:05;;;;;;;9.05;2.45;;;;;;;18.43;66.47;102165.56;5064642;28;20055;-64
2022/05/17 06:48:31;;;;;;;9.30;2.40;;;;;;;18.34;67.19;102171.34;5065639;28;20035;-64
2022/05/17 06:51:04;;;;;;;6.25;2.00;;;;;;;18.37;67.22;102168.56;5066167;28;20024;-63
2022/05/17 06:53:30;;;;;;;5.70;1.70;;;;;;;18.40;67.25;102168.41;5065764;28;20052;-64
2022/05/17 06:55:55;;;;;;;8.98;1.85;;;;;;;18.61;66.72;102170.13;5064123;28;20064;-63
2022/05/17 06:58:20;;;;;;;8.93;2.17;;;;;;;18.72;66.50;102162.47;5065295;28;20253;-62
2022/05/17 07:00:46;;;;;;;9.95;2.17;;;;;;;18.74;66.23;102159.72;5065335;28;20691;-62
2022/05/17 07:03:11;;;;;;;8.75;2.47;;;;;;;18.52;67.86;102153.63;5064632;28;20044;-63
2022/05/17 07:05:36;;;;;;;10.75;2.80;;;;;;;18.60;66.58;102155.06;5065364;28;20024;-64
2022/05/17 07:08:02;;;;;;;9.20;2.30;;;;;;;18.70;65.96;102153.69;5065557;28;20025;-61
2022/05/17 07:13:15;;;;;;;9.27;2.20;;;;;;;18.77;66.34;102155.13;5066479;28;20035;-68
2022/05/17 07:15:43;;;;;;;8.90;2.25;;;;;;;19.06;65.75;102155.50;5066360;28;20009;-65
2022/05/17 07:18:11;;;;;;;9.40;2.88;;;;;;;19.05;66.47;102158.25;5065489;28;20027;-64
2022/05/17 07:20:36;;;;;;;7.68;2.20;;;;;;;19.34;65.52;102152.44;5065118;28;20486;-66
2022/05/17 07:23:03;;;;;;;7.80;2.30;;;;;;;19.25;66.37;102156.44;5062331;28;20032;-64
2022/05/17 07:25:29;;;;;;;8.38;2.55;;;;;;;19.65;65.19;102158.88;5064430;28;20016;-66
2022/05/17 07:27:55;;;;;;;10.57;2.67;;;;;;;19.93;64.32;102163.66;5065895;28;20047;-64
2022/05/17 07:30:20;;;;;;;8.20;2.45;;;;;;;19.85;64.35;102167.69;5065711;28;20545;-66
2022/05/17 07:32:46;;;;;;;9.05;2.40;;;;;;;20.02;64.67;102164.16;5065156;28;20078;-66
2022/05/17 07:35:12;;;;;;;5.53;2.22;;;;;;;20.27;63.99;102173.53;5065499;28;20108;-66
2022/05/17 07:37:38;;;;;;;8.23;2.13;;;;;;;20.58;63.79;102174.53;5065635;28;20024;-66
2022/05/17 07:40:04;;;;;;;4.32;1.70;;;;;;;20.60;63.37;102185.16;5064360;28;20028;-66
2022/05/17 07:42:31;;;;;;;7.45;2.22;;;;;;;20.59;63.57;102178.94;5065787;28;20032;-66
2022/05/17 07:44:57;;;;;;;6.72;1.83;;;;;;;20.65;63.44;102183.94;5065699;28;20039;-64
2022/05/17 07:47:22;;;;;;;7.70;2.13;;;;;;;20.65;64.47;102181.25;5064649;28;20032;-67
2022/05/17 07:49:47;;;;;;;6.40;1.80;;;;;;;20.67;63.68;102181.19;5062125;28;20025;-66
2022/05/17 07:52:13;;;;;;;6.47;1.80;;;;;;;20.30;65.58;102186.75;5064415;28;20029;-66
2022/05/17 07:54:38;;;;;;;6.22;1.95;;;;;;;19.86;67.14;102189.00;5065274;28;20039;-62
2022/05/17 07:57:07;;;;;;;5.90;1.90;;;;;;;19.71;68.46;102204.03;5067555;28;20437;-66
2022/05/17 07:59:32;;;;;;;;;;;;;;;20.06;68.73;102198.69;5068648;28;20028;-67
2022/05/17 08:01:58;;;;;;;7.35;2.20;;;;;;;20.29;68.48;102195.75;5068356;28;19916;-65
2022/05/17 08:04:28;;;;;;;9.75;2.30;;;;;;;20.88;64.94;102208.56;5067862;28;20590;-65
2022/05/17 08:06:54;;;;;;;7.80;1.90;;;;;;;20.66;65.60;102201.75;5066721;28;20021;-67
2022/05/17 08:09:19;;;;;;;7.53;1.90;;;;;;;20.91;65.80;102194.16;5068544;28;20028;-66
2022/05/17 08:11:44;;;;;;;4.55;1.92;;;;;;;21.02;64.86;102194.44;5067068;28;20033;-66
2022/05/17 08:14:10;;;;;;;7.53;2.15;;;;;;;20.98;65.49;102200.06;5067672;28;20013;-65
2022/05/17 08:16:36;;;;;;;6.32;2.30;;;;;;;21.00;65.59;102201.69;5067296;28;20497;-65
2022/05/17 08:19:01;;;;;;;5.80;2.30;;;;;;;21.11;65.57;102200.22;5068231;28;20025;-67
2022/05/17 08:21:27;;;;;;;4.90;2.20;;;;;;;21.51;64.63;102199.69;5067701;28;20029;-66
2022/05/17 08:23:52;;;;;;;7.63;2.40;;;;;;;21.66;64.17;102204.16;5068470;28;20099;-66
2022/05/17 08:29:03;;;;;;;5.68;2.28;;;;;;;21.76;64.43;102201.81;5046717;28;20047;-66
2022/05/17 08:31:28;;;;;;;6.55;2.05;;;;;;;21.97;63.21;102204.16;5067481;28;20029;-67
2022/05/17 08:33:54;;;;;;;3.67;1.85;;;;;;;22.15;62.95;102195.94;5066844;28;20024;-65
2022/05/17 08:36:19;;;;;;;3.70;2.03;;;;;;;22.13;61.82;102192.47;5067704;28;20028;-67
2022/05/17 08:38:47;;;;;;;6.63;2.40;;;;;;;22.27;62.54;102199.69;5068720;28;20027;-67
2022/05/17 08:41:37;;;;;;;5.20;2.03;;;;;;;22.38;62.71;102191.81;5066477;28;20031;-66
2022/05/17 08:44:14;;;;;;;6.15;2.58;;;;;;;22.57;63.31;102190.63;5067176;28;20687;-68
2022/05/17 08:46:48;;;;;;;5.63;2.17;;;;;;;22.58;62.39;102189.72;5067421;28;20048;-67
2022/05/17 08:49:20;;;;;;;8.55;2.08;;;;;;;22.82;60.95;102189.09;5068026;28;20090;-66
2022/05/17 08:51:53;;;;;;;5.50;2.10;;;;;;;22.93;60.46;102191.06;5065552;28;20029;-66
2022/05/17 08:54:31;;;;;;;5.75;2.17;;;;;;;22.80;61.06;102191.00;5066228;28;20112;-66
2022/05/17 08:57:07;;;;;;;8.07;1.88;;;;;;;23.02;60.85;102187.78;5066683;28;20555;-68
2022/05/17 08:59:36;;;;;;;3.30;2.17;;;;;;;23.15;60.34;102181.59;5066612;28;20360;-68
2022/05/17 09:02:08;;;;;;;3.97;2.30;;;;;;;23.42;60.43;102175.34;5064141;28;20127;-66
2022/05/17 09:05:05;;;;;;;5.97;2.20;;;;;;;23.51;60.40;102181.94;5066890;28;20139;-67
2022/05/17 09:07:52;;;;;;;8.27;2.20;;;;;;;23.56;59.66;102179.78;5057567;28;20050;-67
2022/05/17 09:10:38;;;;;;;3.75;2.30;;;;;;;23.26;60.22;102181.72;5066382;28;20032;-67
2022/05/17 09:13:24;;;;;;;8.05;2.30;;;;;;;23.12;60.17;102182.66;5041586;28;20037;-68
2022/05/17 09:15:50;;;;;;;6.22;2.33;;;;;;;23.10;60.15;102185.47;5062382;28;20423;-68
2022/05/17 09:18:18;;;;;;;6.68;2.65;;;;;;;22.84;61.00;102182.66;5045605;28;20029;-70
2022/05/17 09:20:43;;;;;;;6.63;2.30;;;;;;;23.39;59.39;102179.09;5047433;28;20412;-68
2022/05/17 09:23:09;;;;;;;7.68;2.67;;;;;;;23.34;59.84;102178.53;5048353;28;20032;-70
2022/05/17 09:26:04;;;;;;;5.43;2.53;;;;;;;23.25;60.58;102179.13;5066757;28;20035;-71
2022/05/17 09:29:08;;;;;;;9.55;2.67;;;;;;;23.36;59.37;102181.97;5066799;28;20032;-70
2022/05/17 09:31:35;;;;;;;4.68;1.90;;;;;;;23.66;59.53;102178.16;5059082;28;20044;-71
2022/05/17 09:34:04;;;;;;;7.43;2.53;;;;;;;23.49;59.82;102182.03;5067387;28;20020;-70
2022/05/17 09:37:00;;;;;;;5.70;2.10;;;;;;;23.51;58.92;102173.88;5067421;28;20035;-70
2022/05/17 09:39:27;;;;;;;7.80;2.35;;;;;;;23.39;59.89;102184.47;5063850;28;20123;-69
2022/05/17 09:41:56;;;;;;;6.95;2.45;;;;;;;23.67;58.56;102174.53;5065870;28;20096;-69
2022/05/17 09:44:23;;;;;;;5.47;2.67;;;;;;;24.08;57.71;102179.81;5065749;28;20510;-70
2022/05/17 09:46:51;;;;;;;7.82;2.53;;;;;;;23.77;58.12;102187.34;5066890;28;20020;-69
2022/05/17 09:54:53;;;;;;;6.55;2.97;;;;;;;24.15;56.86;102173.06;5064730;28;20044;-68
2022/05/17 09:57:29;;;;;;;10.85;3.40;;;;;;;24.06;58.20;102173.69;5066168;28;20025;-70
2022/05/17 10:00:12;;;;;;;9.48;3.63;;;;;;;23.46;58.82;102171.47;5064798;28;20024;-69
2022/05/17 10:02:49;;;;;;;6.15;2.88;;;;;;;24.00;56.93;102172.28;5065188;28;20486;-69
2022/05/17 10:05:20;;;;;;;6.05;2.85;;;;;;;24.22;56.57;102158.19;5066410;28;20060;-68
2022/05/17 10:08:03;;;;;;;7.78;2.85;;;;;;;24.10;57.52;102162.59;5066186;28;20051;-68
2022/05/17 10:10:33;;;;;;;10.20;2.92;;;;;;;24.63;54.79;102160.69;5050150;28;20036;-68
2022/05/17 10:13:10;;;;;;;5.43;2.28;;;;;;;24.67;55.00;102159.47;5055067;28;20057;-68
2022/05/17 10:15:38;;;;;;;6.28;3.00;;;;;;;24.82;53.57;102160.16;5056299;28;20021;-66
2022/05/17 10:18:17;;;;;;;8.90;3.15;;;;;;;24.95;54.10;102151.22;5052278;28;20025;-66
2022/05/17 10:20:46;;;;;;;7.80;3.35;;;;;;;25.26;52.31;102150.72;5053337;28;20060;-66
2022/05/17 10:23:14;;;;;;;;;;;;;;;24.82;53.11;102143.13;5055803;28;20051;-67
2022/05/17 10:25:41;;;;;;;7.45;3.17;;;;;;;24.71;54.70;102152.03;5055724;28;19995;-67
2022/05/17 10:28:19;;;;;;;4.07;2.75;;;;;;;24.97;53.63;102154.63;5059031;28;20035;-67
2022/05/17 10:31:03;;;;;;;6.20;2.70;;;;;;;25.26;54.03;102145.31;5053631;28;20044;-66
2022/05/17 10:33:44;;;;;;;10.13;2.97;;;;;;;24.99;53.20;102150.00;5058293;28;20082;-68
2022/05/17 10:36:19;;;;;;;9.23;3.55;;;;;;;24.97;53.57;102147.41;5053956;28;20025;-68
2022/05/17 10:39:06;;;;;;;5.85;3.42;;;;;;;24.97;52.64;102138.47;5053042;28;20035;-67
2022/05/17 10:41:32;;;;;;;8.40;3.30;;;;;;;25.54;52.68;102137.78;5045972;28;20491;-67
2022/05/17 10:43:58;;;;;;;6.82;3.85;;;;;;;25.69;50.85;102141.16;5045883;28;20067;-67
2022/05/17 10:46:29;;;;;;;8.50;3.42;;;;;;;24.96;51.90;102134.88;5060977;28;20029;-68
2022/05/17 10:48:58;;;;;;;6.80;3.47;;;;;;;24.53;53.59;102132.69;5062994;28;20024;-68
2022/05/17 10:51:40;;;;;;;6.15;3.83;;;;;;;24.73;53.67;102128.50;5051130;28;20170;-67
2022/05/17 10:54:24;;;;;;;9.43;4.05;;;;;;;24.78;52.55;102126.34;5062604;28;20054;-65
2022/05/17 10:57:00;;;;;;;12.70;4.05;;;;;;;25.32;51.74;102124.13;5065584;28;20024;-64
2022/05/17 10:59:28;;;;;;;9.02;3.30;;;;;;;25.57;51.47;102121.34;5058271;28;20155;-64
2022/05/17 11:02:09;;;;;;;7.65;3.75;;;;;;;25.43;52.88;102108.97;5056765;28;20379;-64
2022/05/17 11:04:57;;;;;;;10.70;3.92;;;;;;;25.42;53.27;102105.38;5050126;28;20441;-64
2022/05/17 11:07:31;;;;;;;8.65;3.90;;;;;;;25.84;51.66;102112.97;5051998;28;20029;-64
2022/05/17 11:10:35;;;;;;;7.15;3.53;;;;;;;26.33;50.34;102103.72;5060953;28;20055;-66
2022/05/17 11:13:11;;;;;;;11.25;4.88;;;;;;;26.36;52.76;102100.78;5040595;28;20120;-65
2022/05/17 11:15:42;;;;;;;13.65;4.90;;;;;;;26.20;50.68;102099.31;5062816;28;20028;-64
2022/05/17 11:18:15;;;;;;;12.00;4.95;;;;;;;26.13;50.11;102103.50;5063111;28;20533;-65
2022/05/17 11:20:50;;;;;;;9.20;4.53;;;;;;;25.95;49.28;102105.84;5065116;28;20574;-65
2022/05/17 11:23:47;;;;;;;11.35;4.53;;;;;;;26.28;50.23;102101.41;5065232;28;20028;-65
2022/05/17 11:26:28;;;;;;;8.00;4.47;;;;;;;26.15;50.86;102103.38;5063755;28;20033;-64
2022/05/17 11:29:30;;;;;;;11.40;4.70;;;;;;;26.08;51.32;102100.31;5064167;28;20614;-64
2022/05/17 11:31:58;;;;;;;6.80;4.45;;;;;;;26.06;50.33;102083.34;5069115;28;20032;-65
2022/05/17 11:34:31;;;;;;;9.23;4.88;;;;;;;26.29;51.73;102075.22;5068352;28;20035;-64
2022/05/17 11:37:08;;;;;;;13.10;5.53;;;;;;;26.38;51.72;102071.81;5069124;28;20555;-68
2022/05/17 11:39:40;;;;;;;13.77;6.53;;;;;;;26.11;52.40;102064.94;5067787;28;20048;-65
2022/05/17 11:42:24;;;;;;;17.50;5.88;;;;;;;26.32;50.44;102061.50;5066941;28;20028;-64
2022/05/17 11:44:49;;;;;;;7.57;4.65;;;;;;;26.45;50.54;102072.13;5065072;28;20028;-65